Time,TemperatureF,DewpointF,PressureIn,WindDirection,WindDirectionDegrees,WindSpeedMPH,WindSpeedGustMPH,Humidity,HourlyPrecipIn,Conditions,Clouds,dailyrainin,SoftwareType,DateUTC
2013-08-06 00:00:00,66.4,61.4,29.87,ESE,112,0.0,-999.0,84,-99.99,,,0.00,Acu-Link.com,2013-08-06 04:00:00,
2013-08-06 00:15:00,66.6,61.6,29.87,WSW,247,0.0,-999.0,84,-99.99,,,0.00,Acu-Link.com,2013-08-06 04:15:00,
2013-08-06 00:31:00,66.7,62.1,29.86,SSW,202,0.0,-999.0,85,-99.99,,,0.00,Acu-Link.com,2013-08-06 04:31:00,
2013-08-06 00:46:00,66.7,61.7,29.86,SSW,202,0.0,-999.0,84,-99.99,,,0.00,Acu-Link.com,2013-08-06 04:46:00,
2013-08-06 01:01:00,66.7,62.1,29.85,WNW,292,0.0,-999.0,85,-99.99,,,0.00,Acu-Link.com,2013-08-06 05:01:00,
2013-08-06 01:16:00,66.6,61.6,29.86,NW,315,0.0,-999.0,84,-99.99,,,0.00,Acu-Link.com,2013-08-06 05:16:00,
2013-08-06 01:31:00,66.7,61.7,29.86,East,90,0.0,-999.0,84,-99.99,,,0.00,Acu-Link.com,2013-08-06 05:31:00,
2013-08-06 01:47:00,66.7,62.1,29.86,SW,225,0.0,-999.0,85,-99.99,,,0.00,Acu-Link.com,2013-08-06 05:47:00,
2013-08-06 02:02:00,66.7,62.1,29.86,South,180,0.0,-999.0,85,-99.99,,,0.00,Acu-Link.com,2013-08-06 06:02:00,
2013-08-06 02:17:00,66.6,61.9,29.85,West,270,0.0,-999.0,85,-99.99,,,0.00,Acu-Link.com,2013-08-06 06:17:00,
2013-08-06 02:32:00,66.6,62.2,29.85,SE,135,0.0,-999.0,86,-99.99,,,0.00,Acu-Link.com,2013-08-06 06:32:00,
2013-08-06 02:48:00,66.6,62.2,29.85,SSW,202,0.0,-999.0,86,-99.99,,,0.00,Acu-Link.com,2013-08-06 06:48:00,
2013-08-06 03:03:00,66.6,61.9,29.84,South,180,0.0,-999.0,85,-99.99,,,0.00,Acu-Link.com,2013-08-06 07:03:00,
2013-08-06 03:18:00,66.6,62.2,29.83,West,270,0.0,-999.0,86,-99.99,,,0.00,Acu-Link.com,2013-08-06 07:18:00,
2013-08-06 03:33:00,66.6,62.6,29.84,West,270,0.0,-999.0,87,-99.99,,,0.00,Acu-Link.com,2013-08-06 07:33:00,
2013-08-06 03:48:00,66.6,62.6,29.84,South,180,0.0,-999.0,87,-99.99,,,0.00,Acu-Link.com,2013-08-06 07:48:00,
2013-08-06 04:03:00,66.6,62.6,29.83,South,180,0.0,-999.0,87,-99.99,,,0.00,Acu-Link.com,2013-08-06 08:03:00,
2013-08-06 04:19:00,66.6,62.6,29.83,WNW,292,0.0,-999.0,87,-99.99,,,0.00,Acu-Link.com,2013-08-06 08:19:00,
2013-08-06 04:34:00,66.6,62.9,29.83,SE,135,0.0,-999.0,88,-99.99,,,0.00,Acu-Link.com,2013-08-06 08:34:00,
2013-08-06 04:49:00,66.6,62.9,29.84,SSW,202,0.0,-999.0,88,-99.99,,,0.00,Acu-Link.com,2013-08-06 08:49:00,
2013-08-06 05:04:00,66.6,63.2,29.84,WSW,247,0.0,-999.0,89,-99.99,,,0.00,Acu-Link.com,2013-08-06 09:04:00,
2013-08-06 05:19:00,66.7,64.0,29.85,South,180,0.0,-999.0,91,-99.99,,,0.00,Acu-Link.com,2013-08-06 09:19:00,
2013-08-06 05:34:00,66.6,63.5,29.84,NNE,22,0.0,-999.0,90,-99.99,,,0.00,Acu-Link.com,2013-08-06 09:34:00,
2013-08-06 05:49:00,66.4,63.7,29.84,SE,135,0.0,-999.0,91,-99.99,,,0.00,Acu-Link.com,2013-08-06 09:49:00,
2013-08-06 06:05:00,66.4,63.7,29.84,East,90,0.0,-999.0,91,-99.99,,,0.00,Acu-Link.com,2013-08-06 10:05:00,
2013-08-06 06:20:00,66.6,63.8,29.84,East,90,0.0,-999.0,91,-99.99,,,0.00,Acu-Link.com,2013-08-06 10:20:00,
2013-08-06 06:35:00,66.6,64.2,29.84,NW,315,0.0,-999.0,92,-99.99,,,0.00,Acu-Link.com,2013-08-06 10:35:00,
2013-08-06 06:50:00,66.6,64.2,29.85,South,180,0.0,-999.0,92,-99.99,,,0.00,Acu-Link.com,2013-08-06 10:50:00,
2013-08-06 07:05:00,66.6,64.2,29.85,North,0,0.0,-999.0,92,-99.99,,,0.00,Acu-Link.com,2013-08-06 11:05:00,
2013-08-06 07:21:00,66.6,64.2,29.86,South,180,0.0,-999.0,92,-99.99,,,0.00,Acu-Link.com,2013-08-06 11:21:00,
2013-08-06 07:36:00,66.9,64.5,29.86,SW,225,0.0,-999.0,92,-99.99,,,0.00,Acu-Link.com,2013-08-06 11:36:00,
2013-08-06 07:51:00,67.1,64.7,29.87,South,180,0.0,-999.0,92,-99.99,,,0.00,Acu-Link.com,2013-08-06 11:51:00,
2013-08-06 08:06:00,67.8,65.4,29.87,NE,45,0.0,-999.0,92,-99.99,,,0.00,Acu-Link.com,2013-08-06 12:06:00,
2013-08-06 08:22:00,68.7,66.0,29.87,NNW,337,0.0,-999.0,91,-99.99,,,0.00,Acu-Link.com,2013-08-06 12:22:00,
2013-08-06 08:37:00,70.0,66.6,29.87,East,90,0.0,-999.0,89,-99.99,,,0.00,Acu-Link.com,2013-08-06 12:37:00,
2013-08-06 08:52:00,71.2,67.2,29.87,West,270,0.0,-999.0,87,-99.99,,,0.00,Acu-Link.com,2013-08-06 12:52:00,
2013-08-06 09:07:00,73.0,67.9,29.87,East,90,0.0,-999.0,84,-99.99,,,0.00,Acu-Link.com,2013-08-06 13:07:00,
2013-08-06 09:22:00,75.9,68.6,29.87,NNW,337,0.0,-999.0,78,-99.99,,,0.00,Acu-Link.com,2013-08-06 13:22:00,
2013-08-06 09:38:00,75.2,67.9,29.88,SSE,157,0.0,-999.0,78,-99.99,,,0.00,Acu-Link.com,2013-08-06 13:38:00,
2013-08-06 09:53:00,75.4,68.0,29.88,ESE,112,0.0,-999.0,78,-99.99,,,0.00,Acu-Link.com,2013-08-06 13:53:00,
2013-08-06 10:08:00,76.8,68.7,29.88,NE,45,0.0,-999.0,76,-99.99,,,0.00,Acu-Link.com,2013-08-06 14:08:00,
2013-08-06 10:23:00,77.0,68.5,29.88,NNE,22,1.1,-999.0,75,-99.99,,,0.00,Acu-Link.com,2013-08-06 14:23:00,
2013-08-06 10:38:00,76.8,68.3,29.88,NNW,337,2.2,-999.0,75,-99.99,,,0.00,Acu-Link.com,2013-08-06 14:38:00,
2013-08-06 10:54:00,76.8,67.5,29.88,ESE,112,0.0,-999.0,73,-99.99,,,0.00,Acu-Link.com,2013-08-06 14:54:00,
2013-08-06 11:09:00,75.9,67.0,29.88,West,270,0.0,-999.0,74,-99.99,,,0.00,Acu-Link.com,2013-08-06 15:09:00,
2013-08-06 11:24:00,76.8,65.9,29.88,NNW,337,0.0,-999.0,69,-99.99,,,0.00,Acu-Link.com,2013-08-06 15:24:00,
2013-08-06 11:39:00,77.9,67.3,29.88,WSW,247,0.0,-999.0,70,-99.99,,,0.00,Acu-Link.com,2013-08-06 15:39:00,
2013-08-06 11:54:00,76.6,68.1,29.88,East,90,0.0,-999.0,75,-99.99,,,0.00,Acu-Link.com,2013-08-06 15:54:00,
2013-08-06 12:10:00,80.2,69.5,29.88,WSW,247,0.0,-999.0,70,-99.99,,,0.00,Acu-Link.com,2013-08-06 16:10:00,
2013-08-06 12:25:00,76.3,68.5,29.88,SE,135,0.0,-999.0,77,-99.99,,,0.00,Acu-Link.com,2013-08-06 16:25:00,
2013-08-06 12:40:00,76.1,68.4,29.89,NNW,337,0.0,-999.0,77,-99.99,,,0.00,Acu-Link.com,2013-08-06 16:40:00,
2013-08-06 12:55:00,76.6,68.9,29.89,ENE,67,1.6,-999.0,77,-99.99,,,0.00,Acu-Link.com,2013-08-06 16:55:00,
2013-08-06 13:11:00,79.3,67.4,29.88,WNW,292,2.2,-999.0,67,-99.99,,,0.00,Acu-Link.com,2013-08-06 17:11:00,
2013-08-06 13:26:00,78.3,67.2,29.88,NNE,22,0.0,-999.0,69,-99.99,,,0.00,Acu-Link.com,2013-08-06 17:26:00,
2013-08-06 13:41:00,79.0,67.5,29.88,NNW,337,2.2,-999.0,68,-99.99,,,0.00,Acu-Link.com,2013-08-06 17:41:00,
2013-08-06 13:56:00,78.6,67.2,29.87,ESE,112,2.2,-999.0,68,-99.99,,,0.00,Acu-Link.com,2013-08-06 17:56:00,
2013-08-06 14:11:00,79.7,67.3,29.88,West,270,0.0,-999.0,66,-99.99,,,0.00,Acu-Link.com,2013-08-06 18:11:00,
2013-08-06 14:27:00,81.1,67.8,29.87,SSW,202,1.6,-999.0,64,-99.99,,,0.00,Acu-Link.com,2013-08-06 18:27:00,
2013-08-06 14:42:00,81.0,68.5,29.86,NE,45,0.0,-999.0,66,-99.99,,,0.00,Acu-Link.com,2013-08-06 18:42:00,
2013-08-06 14:57:00,80.6,69.5,29.87,WSW,247,0.0,-999.0,69,-99.99,,,0.00,Acu-Link.com,2013-08-06 18:57:00,
2013-08-06 15:12:00,79.2,69.7,29.86,North,0,1.6,-999.0,73,-99.99,,,0.00,Acu-Link.com,2013-08-06 19:12:00,
2013-08-06 15:27:00,79.3,69.9,29.86,NNW,337,1.6,-999.0,73,-99.99,,,0.00,Acu-Link.com,2013-08-06 19:27:00,
2013-08-06 15:43:00,79.0,70.4,29.85,NE,45,1.6,-999.0,75,-99.99,,,0.00,Acu-Link.com,2013-08-06 19:43:00,
2013-08-06 15:58:00,79.7,70.7,29.84,North,0,1.1,-999.0,74,-99.99,,,0.00,Acu-Link.com,2013-08-06 19:58:00,
2013-08-06 16:13:00,82.8,69.8,29.84,SSW,202,1.6,-999.0,65,-99.99,,,0.00,Acu-Link.com,2013-08-06 20:13:00,
2013-08-06 16:28:00,83.7,71.1,29.84,NW,315,0.0,-999.0,66,-99.99,,,0.00,Acu-Link.com,2013-08-06 20:28:00,
2013-08-06 16:43:00,83.7,71.5,29.84,North,0,1.1,-999.0,67,-99.99,,,0.00,Acu-Link.com,2013-08-06 20:43:00,
2013-08-06 16:59:00,83.7,71.5,29.84,East,90,0.0,-999.0,67,-99.99,,,0.00,Acu-Link.com,2013-08-06 20:59:00,
2013-08-06 17:14:00,83.5,71.3,29.84,NW,315,0.0,-999.0,67,-99.99,,,0.00,Acu-Link.com,2013-08-06 21:14:00,
2013-08-06 17:29:00,83.1,71.9,29.84,SSW,202,0.0,-999.0,69,-99.99,,,0.00,Acu-Link.com,2013-08-06 21:29:00,
2013-08-06 17:44:00,82.6,73.4,29.84,West,270,0.0,-999.0,74,-99.99,,,0.00,Acu-Link.com,2013-08-06 21:44:00,
2013-08-06 17:59:00,82.0,72.5,29.84,WSW,247,0.0,-999.0,73,-99.99,,,0.00,Acu-Link.com,2013-08-06 21:59:00,
2013-08-06 18:15:00,81.9,73.1,29.85,SSW,202,0.0,-999.0,75,-99.99,,,0.00,Acu-Link.com,2013-08-06 22:15:00,
2013-08-06 18:30:00,81.0,72.3,29.85,East,90,0.0,-999.0,75,-99.99,,,0.00,Acu-Link.com,2013-08-06 22:30:00,
2013-08-06 18:45:00,79.9,72.4,29.85,WNW,292,0.0,-999.0,78,-99.99,,,0.00,Acu-Link.com,2013-08-06 22:45:00,
2013-08-06 19:00:00,78.8,71.7,29.84,WNW,292,0.0,-999.0,79,-99.99,,,0.00,Acu-Link.com,2013-08-06 23:00:00,
2013-08-06 19:15:00,77.9,71.6,29.84,WNW,292,0.0,-999.0,81,-99.99,,,0.00,Acu-Link.com,2013-08-06 23:15:00,
2013-08-06 19:31:00,77.2,70.9,29.85,West,270,0.0,-999.0,81,-99.99,,,0.00,Acu-Link.com,2013-08-06 23:31:00,
2013-08-06 19:46:00,76.3,70.4,29.86,West,270,0.0,-999.0,82,-99.99,,,0.00,Acu-Link.com,2013-08-06 23:46:00,
2013-08-06 20:01:00,75.6,69.7,29.86,WNW,292,0.0,-999.0,82,-99.99,,,0.00,Acu-Link.com,2013-08-07 00:01:00,
2013-08-06 20:16:00,74.8,69.7,29.86,West,270,0.0,-999.0,84,-99.99,,,0.00,Acu-Link.com,2013-08-07 00:16:00,
2013-08-06 20:31:00,74.1,69.3,29.86,West,270,0.0,-999.0,85,-99.99,,,0.00,Acu-Link.com,2013-08-07 00:31:00,
2013-08-06 20:47:00,73.6,68.8,29.86,West,270,0.0,-999.0,85,-99.99,,,0.00,Acu-Link.com,2013-08-07 00:47:00,
2013-08-06 21:02:00,73.2,68.8,29.85,West,270,0.0,-999.0,86,-99.99,,,0.00,Acu-Link.com,2013-08-07 01:02:00,
2013-08-06 21:17:00,72.7,68.6,29.85,West,270,0.0,-999.0,87,-99.99,,,0.00,Acu-Link.com,2013-08-07 01:17:00,
2013-08-06 21:32:00,72.5,68.4,29.85,West,270,0.0,-999.0,87,-99.99,,,0.00,Acu-Link.com,2013-08-07 01:32:00,
2013-08-06 21:47:00,72.1,68.0,29.86,SSW,202,0.0,-999.0,87,-99.99,,,0.00,Acu-Link.com,2013-08-07 01:47:00,
2013-08-06 22:03:00,71.8,67.7,29.87,NNW,337,0.0,-999.0,87,-99.99,,,0.00,Acu-Link.com,2013-08-07 02:03:00,
2013-08-06 22:18:00,71.6,67.9,29.87,West,270,0.0,-999.0,88,-99.99,,,0.00,Acu-Link.com,2013-08-07 02:18:00,
2013-08-06 22:33:00,71.8,68.0,29.88,NW,315,0.0,-999.0,88,-99.99,,,0.00,Acu-Link.com,2013-08-07 02:33:00,
2013-08-06 22:48:00,71.8,68.0,29.89,ENE,67,0.0,-999.0,88,-99.99,,,0.00,Acu-Link.com,2013-08-07 02:48:00,
2013-08-06 23:04:00,71.8,68.4,29.89,WSW,247,0.0,-999.0,89,-99.99,,,0.00,Acu-Link.com,2013-08-07 03:04:00,
2013-08-06 23:19:00,71.8,68.0,29.89,NW,315,1.1,-999.0,88,-99.99,,,0.00,Acu-Link.com,2013-08-07 03:19:00,
2013-08-06 23:34:00,71.8,67.7,29.89,NW,315,0.0,-999.0,87,-99.99,,,0.00,Acu-Link.com,2013-08-07 03:34:00,
2013-08-06 23:49:00,71.8,67.7,29.90,SSW,202,0.0,-999.0,87,-99.99,,,0.00,Acu-Link.com,2013-08-07 03:49:00,